Canoas, Brazil
Current Conditions -  °F | °C
As of 5:00 PM on Sunday 21 Dec 2014 (Local Time) from SBCO Reporting Station
Thunderstorm Thunderstorm  
Wind Chill: 72°   Ceiling: 500
Heat Index: 72°   Visibility: 2.5mi
Dew Point: 72°   Wind: 3mph
Humidity: 100%   Direction: 360°N
Pressure: 29.47"   Gusts: NA
Location:  29.92°S, 51.18°W
Report Text: SBCO 211900Z 36003KT 350V120 4000 -TSRA BR SCT003 BKN005 BKN014 FEW030CB 22/22 Q0998 RERA
Loading
Personal Weather Stations






























Interactive Weather Map New forecast layout! Learn more

10-Day Weather Forecast

Advertisements
Track Severe Weather on mobile